sensor_id;sensor_type;location;lat;lon;timestamp;temperature;humidity
49148;DHT22;41980;45.550;12.070;2023-06-14T00:05:20;19.70;70.40
49148;DHT22;41980;45.550;12.070;2023-06-14T00:11:25;19.60;70.80
49148;DHT22;41980;45.550;12.070;2023-06-14T00:17:28;19.50;70.90
49148;DHT22;41980;45.550;12.070;2023-06-14T00:23:32;19.50;71.10
49148;DHT22;41980;45.550;12.070;2023-06-14T00:29:34;19.40;71.60
49148;DHT22;41980;45.550;12.070;2023-06-14T00:35:36;19.30;71.20
49148;DHT22;41980;45.550;12.070;2023-06-14T00:41:39;19.30;71.60
49148;DHT22;41980;45.550;12.070;2023-06-14T00:47:43;19.30;71.90
49148;DHT22;41980;45.550;12.070;2023-06-14T00:53:46;19.30;72.00
49148;DHT22;41980;45.550;12.070;2023-06-14T00:59:49;19.30;71.20
49148;DHT22;41980;45.550;12.070;2023-06-14T01:05:59;19.20;71.70
49148;DHT22;41980;45.550;12.070;2023-06-14T01:18:17;19.20;71.50
49148;DHT22;41980;45.550;12.070;2023-06-14T01:24:19;19.20;71.40
49148;DHT22;41980;45.550;12.070;2023-06-14T01:30:26;19.30;71.50
49148;DHT22;41980;45.550;12.070;2023-06-14T01:36:28;19.30;70.90
49148;DHT22;41980;45.550;12.070;2023-06-14T01:42:37;19.40;71.00
49148;DHT22;41980;45.550;12.070;2023-06-14T01:48:39;19.40;70.50
49148;DHT22;41980;45.550;12.070;2023-06-14T01:54:43;19.50;70.20
49148;DHT22;41980;45.550;12.070;2023-06-14T02:00:44;19.50;69.90
49148;DHT22;41980;45.550;12.070;2023-06-14T02:06:47;19.50;69.70
49148;DHT22;41980;45.550;12.070;2023-06-14T02:12:48;19.60;69.40
49148;DHT22;41980;45.550;12.070;2023-06-14T02:18:51;19.70;69.30
49148;DHT22;41980;45.550;12.070;2023-06-14T02:24:54;19.70;69.10
49148;DHT22;41980;45.550;12.070;2023-06-14T02:30:56;19.70;69.40
49148;DHT22;41980;45.550;12.070;2023-06-14T02:36:58;19.70;69.00
49148;DHT22;41980;45.550;12.070;2023-06-14T02:43:01;19.70;69.20
49148;DHT22;41980;45.550;12.070;2023-06-14T02:49:03;19.70;68.90
49148;DHT22;41980;45.550;12.070;2023-06-14T02:55:07;19.60;68.80
49148;DHT22;41980;45.550;12.070;2023-06-14T03:01:10;19.50;68.90
49148;DHT22;41980;45.550;12.070;2023-06-14T03:07:15;19.50;68.80
49148;DHT22;41980;45.550;12.070;2023-06-14T03:13:22;19.50;68.70
49148;DHT22;41980;45.550;12.070;2023-06-14T03:19:26;19.40;69.00
49148;DHT22;41980;45.550;12.070;2023-06-14T03:25:30;19.40;69.20
49148;DHT22;41980;45.550;12.070;2023-06-14T03:31:34;19.40;69.00
49148;DHT22;41980;45.550;12.070;2023-06-14T03:37:39;19.50;68.80
49148;DHT22;41980;45.550;12.070;2023-06-14T03:43:41;19.50;68.60
49148;DHT22;41980;45.550;12.070;2023-06-14T03:49:43;19.50;68.60
49148;DHT22;41980;45.550;12.070;2023-06-14T03:55:45;19.50;68.40
49148;DHT22;41980;45.550;12.070;2023-06-14T04:01:47;19.50;68.40
49148;DHT22;41980;45.550;12.070;2023-06-14T04:07:51;19.60;68.10
49148;DHT22;41980;45.550;12.070;2023-06-14T04:13:54;19.80;68.30
49148;DHT22;41980;45.550;12.070;2023-06-14T04:19:59;20.00;67.70
49148;DHT22;41980;45.550;12.070;2023-06-14T04:26:02;20.30;67.40
49148;DHT22;41980;45.550;12.070;2023-06-14T04:32:04;20.50;67.20
49148;DHT22;41980;45.550;12.070;2023-06-14T04:38:08;20.50;67.40
49148;DHT22;41980;45.550;12.070;2023-06-14T04:44:11;20.90;67.10
49148;DHT22;41980;45.550;12.070;2023-06-14T04:50:19;21.30;66.90
49148;DHT22;41980;45.550;12.070;2023-06-14T04:56:23;21.90;67.60
49148;DHT22;41980;45.550;12.070;2023-06-14T05:02:27;23.00;67.40
49148;DHT22;41980;45.550;12.070;2023-06-14T05:08:30;24.40;65.50
49148;DHT22;41980;45.550;12.070;2023-06-14T05:14:33;24.50;64.00
49148;DHT22;41980;45.550;12.070;2023-06-14T05:20:35;25.70;63.70
49148;DHT22;41980;45.550;12.070;2023-06-14T05:26:39;27.00;61.00
49148;DHT22;41980;45.550;12.070;2023-06-14T05:32:41;26.20;61.50
49148;DHT22;41980;45.550;12.070;2023-06-14T05:38:43;25.30;62.20
49148;DHT22;41980;45.550;12.070;2023-06-14T05:44:45;24.80;60.90
49148;DHT22;41980;45.550;12.070;2023-06-14T05:50:47;24.70;62.70
49148;DHT22;41980;45.550;12.070;2023-06-14T05:56:51;24.60;62.40
49148;DHT22;41980;45.550;12.070;2023-06-14T06:02:53;24.20;62.30
49148;DHT22;41980;45.550;12.070;2023-06-14T06:08:59;23.80;62.40
49148;DHT22;41980;45.550;12.070;2023-06-14T06:15:02;23.70;62.80
49148;DHT22;41980;45.550;12.070;2023-06-14T06:21:07;24.10;63.10
49148;DHT22;41980;45.550;12.070;2023-06-14T06:27:09;26.50;60.80
49148;DHT22;41980;45.550;12.070;2023-06-14T06:33:12;28.60;56.50
49148;DHT22;41980;45.550;12.070;2023-06-14T06:39:15;29.80;51.50
49148;DHT22;41980;45.550;12.070;2023-06-14T06:45:17;30.20;52.50
49148;DHT22;41980;45.550;12.070;2023-06-14T06:51:20;30.20;49.80
49148;DHT22;41980;45.550;12.070;2023-06-14T06:57:22;30.20;49.40
49148;DHT22;41980;45.550;12.070;2023-06-14T07:03:25;30.90;50.10
49148;DHT22;41980;45.550;12.070;2023-06-14T07:09:27;31.60;47.80
49148;DHT22;41980;45.550;12.070;2023-06-14T07:15:29;31.80;44.60
49148;DHT22;41980;45.550;12.070;2023-06-14T07:21:31;32.10;45.30
49148;DHT22;41980;45.550;12.070;2023-06-14T07:27:33;32.10;44.60
49148;DHT22;41980;45.550;12.070;2023-06-14T07:33:35;32.20;45.30
49148;DHT22;41980;45.550;12.070;2023-06-14T07:39:37;31.80;44.40
49148;DHT22;41980;45.550;12.070;2023-06-14T07:45:39;31.80;43.80
49148;DHT22;41980;45.550;12.070;2023-06-14T07:51:41;32.50;42.80
49148;DHT22;41980;45.550;12.070;2023-06-14T07:57:46;32.60;42.90
49148;DHT22;41980;45.550;12.070;2023-06-14T08:03:48;33.50;40.50
49148;DHT22;41980;45.550;12.070;2023-06-14T08:09:51;33.30;40.90
49148;DHT22;41980;45.550;12.070;2023-06-14T08:15:53;32.80;38.80
49148;DHT22;41980;45.550;12.070;2023-06-14T08:21:55;32.40;40.60
49148;DHT22;41980;45.550;12.070;2023-06-14T08:27:58;32.00;39.20
49148;DHT22;41980;45.550;12.070;2023-06-14T08:34:00;31.70;40.10
49148;DHT22;41980;45.550;12.070;2023-06-14T08:40:03;31.80;39.00
49148;DHT22;41980;45.550;12.070;2023-06-14T08:46:07;32.70;39.90
49148;DHT22;41980;45.550;12.070;2023-06-14T08:52:12;33.50;39.20
49148;DHT22;41980;45.550;12.070;2023-06-14T08:58:15;33.30;38.90
49148;DHT22;41980;45.550;12.070;2023-06-14T09:04:17;34.00;37.80
49148;DHT22;41980;45.550;12.070;2023-06-14T09:10:21;34.00;36.30
49148;DHT22;41980;45.550;12.070;2023-06-14T09:16:25;34.10;38.30
49148;DHT22;41980;45.550;12.070;2023-06-14T09:22:30;34.00;36.10
49148;DHT22;41980;45.550;12.070;2023-06-14T09:28:32;33.70;37.40
49148;DHT22;41980;45.550;12.070;2023-06-14T09:34:35;34.00;37.70
49148;DHT22;41980;45.550;12.070;2023-06-14T09:40:37;33.70;37.70
49148;DHT22;41980;45.550;12.070;2023-06-14T09:46:40;33.70;35.80
49148;DHT22;41980;45.550;12.070;2023-06-14T09:52:44;33.70;37.90
49148;DHT22;41980;45.550;12.070;2023-06-14T09:58:47;33.10;38.20
49148;DHT22;41980;45.550;12.070;2023-06-14T10:04:58;32.80;37.90
49148;DHT22;41980;45.550;12.070;2023-06-14T10:11:03;32.70;38.30
49148;DHT22;41980;45.550;12.070;2023-06-14T10:17:10;32.70;38.20
49148;DHT22;41980;45.550;12.070;2023-06-14T10:23:18;32.30;38.50
49148;DHT22;41980;45.550;12.070;2023-06-14T10:29:21;31.60;38.10
49148;DHT22;41980;45.550;12.070;2023-06-14T10:35:23;31.90;38.20
49148;DHT22;41980;45.550;12.070;2023-06-14T10:41:27;31.90;38.30
49148;DHT22;41980;45.550;12.070;2023-06-14T10:47:32;31.50;38.40
49148;DHT22;41980;45.550;12.070;2023-06-14T10:53:40;30.90;38.30
49148;DHT22;41980;45.550;12.070;2023-06-14T10:59:42;30.00;39.00
49148;DHT22;41980;45.550;12.070;2023-06-14T11:11:51;29.40;39.30
49148;DHT22;41980;45.550;12.070;2023-06-14T11:17:56;29.20;39.60
49148;DHT22;41980;45.550;12.070;2023-06-14T11:23:59;29.20;40.00
49148;DHT22;41980;45.550;12.070;2023-06-14T11:30:02;29.00;40.40
49148;DHT22;41980;45.550;12.070;2023-06-14T11:36:07;28.90;40.50
49148;DHT22;41980;45.550;12.070;2023-06-14T11:42:15;28.80;40.50
49148;DHT22;41980;45.550;12.070;2023-06-14T11:48:17;28.80;41.00
49148;DHT22;41980;45.550;12.070;2023-06-14T11:54:19;28.70;41.30
49148;DHT22;41980;45.550;12.070;2023-06-14T12:00:25;28.50;41.50
49148;DHT22;41980;45.550;12.070;2023-06-14T12:06:29;28.50;41.90
49148;DHT22;41980;45.550;12.070;2023-06-14T12:12:36;28.30;42.10
49148;DHT22;41980;45.550;12.070;2023-06-14T12:18:40;28.30;42.30
49148;DHT22;41980;45.550;12.070;2023-06-14T12:24:43;28.30;42.50
49148;DHT22;41980;45.550;12.070;2023-06-14T12:30:45;28.40;42.90
49148;DHT22;41980;45.550;12.070;2023-06-14T12:36:48;28.50;42.70
49148;DHT22;41980;45.550;12.070;2023-06-14T12:42:51;28.40;42.30
49148;DHT22;41980;45.550;12.070;2023-06-14T12:48:53;28.20;42.10
49148;DHT22;41980;45.550;12.070;2023-06-14T12:54:56;28.00;42.20
49148;DHT22;41980;45.550;12.070;2023-06-14T13:00:58;27.80;41.50
49148;DHT22;41980;45.550;12.070;2023-06-14T13:07:00;27.80;41.90
49148;DHT22;41980;45.550;12.070;2023-06-14T13:13:05;27.90;41.50
49148;DHT22;41980;45.550;12.070;2023-06-14T13:19:09;27.80;41.70
49148;DHT22;41980;45.550;12.070;2023-06-14T13:25:11;27.80;41.70
49148;DHT22;41980;45.550;12.070;2023-06-14T13:31:13;27.70;41.70
49148;DHT22;41980;45.550;12.070;2023-06-14T13:37:15;27.70;41.80
49148;DHT22;41980;45.550;12.070;2023-06-14T13:43:18;27.70;41.90
49148;DHT22;41980;45.550;12.070;2023-06-14T13:49:20;27.90;41.30
49148;DHT22;41980;45.550;12.070;2023-06-14T13:55:22;27.90;41.90
49148;DHT22;41980;45.550;12.070;2023-06-14T14:01:24;27.90;42.20
49148;DHT22;41980;45.550;12.070;2023-06-14T14:07:27;28.00;42.40
49148;DHT22;41980;45.550;12.070;2023-06-14T14:13:31;27.90;42.70
49148;DHT22;41980;45.550;12.070;2023-06-14T14:19:33;27.80;43.10
49148;DHT22;41980;45.550;12.070;2023-06-14T14:25:36;27.90;44.20
49148;DHT22;41980;45.550;12.070;2023-06-14T14:31:38;28.00;44.10
49148;DHT22;41980;45.550;12.070;2023-06-14T14:37:40;28.00;44.30
49148;DHT22;41980;45.550;12.070;2023-06-14T14:43:42;28.00;44.60
49148;DHT22;41980;45.550;12.070;2023-06-14T14:49:44;28.00;44.90
49148;DHT22;41980;45.550;12.070;2023-06-14T14:55:46;28.00;44.90
49148;DHT22;41980;45.550;12.070;2023-06-14T15:01:49;28.00;45.20
49148;DHT22;41980;45.550;12.070;2023-06-14T15:07:52;28.00;45.50
49148;DHT22;41980;45.550;12.070;2023-06-14T15:13:55;27.80;45.80
49148;DHT22;41980;45.550;12.070;2023-06-14T15:19:57;27.70;46.10
49148;DHT22;41980;45.550;12.070;2023-06-14T15:26:01;27.60;46.60
49148;DHT22;41980;45.550;12.070;2023-06-14T15:32:04;27.50;46.70
49148;DHT22;41980;45.550;12.070;2023-06-14T15:38:07;27.50;46.70
49148;DHT22;41980;45.550;12.070;2023-06-14T15:44:09;27.50;46.60
49148;DHT22;41980;45.550;12.070;2023-06-14T15:50:11;27.50;46.60
49148;DHT22;41980;45.550;12.070;2023-06-14T15:56:13;27.40;46.50
49148;DHT22;41980;45.550;12.070;2023-06-14T16:02:15;27.30;46.50
49148;DHT22;41980;45.550;12.070;2023-06-14T16:08:17;27.40;46.30
49148;DHT22;41980;45.550;12.070;2023-06-14T16:14:19;27.30;46.20
49148;DHT22;41980;45.550;12.070;2023-06-14T16:20:22;27.10;45.80
49148;DHT22;41980;45.550;12.070;2023-06-14T16:26:24;26.90;46.00
49148;DHT22;41980;45.550;12.070;2023-06-14T16:32:27;26.80;46.00
49148;DHT22;41980;45.550;12.070;2023-06-14T16:38:30;26.80;45.90
49148;DHT22;41980;45.550;12.070;2023-06-14T16:44:34;26.90;45.70
49148;DHT22;41980;45.550;12.070;2023-06-14T16:50:36;27.00;45.60
49148;DHT22;41980;45.550;12.070;2023-06-14T16:56:38;26.90;43.90
49148;DHT22;41980;45.550;12.070;2023-06-14T17:02:41;26.90;45.30
49148;DHT22;41980;45.550;12.070;2023-06-14T17:08:46;27.00;45.30
49148;DHT22;41980;45.550;12.070;2023-06-14T17:14:49;26.90;45.30
49148;DHT22;41980;45.550;12.070;2023-06-14T17:20:52;26.70;45.30
49148;DHT22;41980;45.550;12.070;2023-06-14T17:26:55;26.50;45.60
49148;DHT22;41980;45.550;12.070;2023-06-14T17:32:59;26.40;45.80
49148;DHT22;41980;45.550;12.070;2023-06-14T17:39:01;26.20;46.10
49148;DHT22;41980;45.550;12.070;2023-06-14T17:45:05;26.00;46.40
49148;DHT22;41980;45.550;12.070;2023-06-14T17:51:07;25.80;46.70
49148;DHT22;41980;45.550;12.070;2023-06-14T17:57:09;25.60;46.90
49148;DHT22;41980;45.550;12.070;2023-06-14T18:03:13;25.40;47.20
49148;DHT22;41980;45.550;12.070;2023-06-14T18:09:15;25.30;47.60
49148;DHT22;41980;45.550;12.070;2023-06-14T18:15:17;25.10;47.70
49148;DHT22;41980;45.550;12.070;2023-06-14T18:21:19;25.00;47.80
49148;DHT22;41980;45.550;12.070;2023-06-14T18:27:22;25.00;47.90
49148;DHT22;41980;45.550;12.070;2023-06-14T18:33:24;24.90;48.00
49148;DHT22;41980;45.550;12.070;2023-06-14T18:39:26;24.80;48.30
49148;DHT22;41980;45.550;12.070;2023-06-14T18:45:30;24.60;48.70
49148;DHT22;41980;45.550;12.070;2023-06-14T18:51:33;24.50;49.00
49148;DHT22;41980;45.550;12.070;2023-06-14T18:57:36;24.40;49.40
49148;DHT22;41980;45.550;12.070;2023-06-14T19:03:38;24.30;49.40
49148;DHT22;41980;45.550;12.070;2023-06-14T19:09:40;24.20;49.50
49148;DHT22;41980;45.550;12.070;2023-06-14T19:15:42;24.10;49.60
49148;DHT22;41980;45.550;12.070;2023-06-14T19:21:44;24.00;49.70
49148;DHT22;41980;45.550;12.070;2023-06-14T19:27:47;23.90;49.80
49148;DHT22;41980;45.550;12.070;2023-06-14T19:33:49;23.90;49.90
49148;DHT22;41980;45.550;12.070;2023-06-14T19:39:52;23.90;50.10
49148;DHT22;41980;45.550;12.070;2023-06-14T19:45:54;23.70;50.50
49148;DHT22;41980;45.550;12.070;2023-06-14T19:51:56;23.70;51.00
49148;DHT22;41980;45.550;12.070;2023-06-14T19:57:58;23.60;51.40
49148;DHT22;41980;45.550;12.070;2023-06-14T20:04:00;23.70;51.70
49148;DHT22;41980;45.550;12.070;2023-06-14T20:10:02;23.70;51.90
49148;DHT22;41980;45.550;12.070;2023-06-14T20:16:06;23.70;51.90
49148;DHT22;41980;45.550;12.070;2023-06-14T20:22:09;23.80;51.80
49148;DHT22;41980;45.550;12.070;2023-06-14T20:28:12;23.90;51.80
49148;DHT22;41980;45.550;12.070;2023-06-14T20:34:14;23.90;53.30
49148;DHT22;41980;45.550;12.070;2023-06-14T20:40:20;23.70;56.00
49148;DHT22;41980;45.550;12.070;2023-06-14T20:46:23;23.40;57.70
49148;DHT22;41980;45.550;12.070;2023-06-14T20:52:30;23.30;58.50
49148;DHT22;41980;45.550;12.070;2023-06-14T20:58:32;23.10;58.30
49148;DHT22;41980;45.550;12.070;2023-06-14T21:04:34;23.00;58.40
49148;DHT22;41980;45.550;12.070;2023-06-14T21:10:36;22.90;58.80
49148;DHT22;41980;45.550;12.070;2023-06-14T21:16:38;22.90;58.90
49148;DHT22;41980;45.550;12.070;2023-06-14T21:22:41;22.60;60.20
49148;DHT22;41980;45.550;12.070;2023-06-14T21:28:43;22.50;60.00
49148;DHT22;41980;45.550;12.070;2023-06-14T21:34:45;22.30;61.70
49148;DHT22;41980;45.550;12.070;2023-06-14T21:40:47;22.20;60.50
49148;DHT22;41980;45.550;12.070;2023-06-14T21:46:49;22.20;60.60
49148;DHT22;41980;45.550;12.070;2023-06-14T21:52:52;22.00;61.80
49148;DHT22;41980;45.550;12.070;2023-06-14T21:58:56;21.90;62.80
49148;DHT22;41980;45.550;12.070;2023-06-14T22:04:58;21.70;62.40
49148;DHT22;41980;45.550;12.070;2023-06-14T22:11:01;21.60;62.80
49148;DHT22;41980;45.550;12.070;2023-06-14T22:17:03;21.40;63.30
49148;DHT22;41980;45.550;12.070;2023-06-14T22:23:05;21.30;64.70
49148;DHT22;41980;45.550;12.070;2023-06-14T22:29:09;21.20;64.60
49148;DHT22;41980;45.550;12.070;2023-06-14T22:35:12;21.00;64.80
49148;DHT22;41980;45.550;12.070;2023-06-14T22:41:15;20.90;65.80
49148;DHT22;41980;45.550;12.070;2023-06-14T22:47:18;20.70;66.20
49148;DHT22;41980;45.550;12.070;2023-06-14T22:53:22;19.90;68.90
49148;DHT22;41980;45.550;12.070;2023-06-14T22:59:24;19.10;77.50
49148;DHT22;41980;45.550;12.070;2023-06-14T23:05:26;18.70;76.80
49148;DHT22;41980;45.550;12.070;2023-06-14T23:11:30;18.50;76.40
49148;DHT22;41980;45.550;12.070;2023-06-14T23:17:33;18.50;73.70
49148;DHT22;41980;45.550;12.070;2023-06-14T23:23:36;18.80;72.80
49148;DHT22;41980;45.550;12.070;2023-06-14T23:29:38;19.00;72.90
49148;DHT22;41980;45.550;12.070;2023-06-14T23:35:43;19.10;72.50
49148;DHT22;41980;45.550;12.070;2023-06-14T23:41:45;19.10;73.60
49148;DHT22;41980;45.550;12.070;2023-06-14T23:47:49;19.00;72.30
49148;DHT22;41980;45.550;12.070;2023-06-14T23:53:53;19.00;71.70
49148;DHT22;41980;45.550;12.070;2023-06-14T23:59:56;19.00;73.10
